Time,TemperatureF,DewpointF,PressureIn,WindDirection,WindDirectionDegrees,WindSpeedMPH,WindSpeedGustMPH,Humidity,HourlyPrecipIn,Conditions,Clouds,dailyrainin,SolarRadiationWatts/m^2,SoftwareType,DateUTC
2013-08-04 00:02:00,62.0,48.0,-100.00,NW,313,1.0,3.0,60,0.00,,,0.00,0.000000,,2013-08-04 07:02:00,
2013-08-04 00:12:00,62.0,48.0,-100.00,NW,313,1.0,3.0,60,0.00,,,0.00,0.000000,,2013-08-04 07:12:00,
2013-08-04 00:22:00,62.0,48.0,-100.00,NW,313,1.0,3.0,60,0.00,,,0.00,0.000000,,2013-08-04 07:22:00,
2013-08-04 00:31:00,61.0,47.0,-100.00,WNW,296,1.0,4.0,61,0.00,,,0.00,0.000000,,2013-08-04 07:31:00,
2013-08-04 01:02:00,61.0,47.0,-100.00,WNW,296,1.0,4.0,61,0.00,,,0.00,0.000000,,2013-08-04 08:02:00,
2013-08-04 01:12:00,61.0,47.0,-100.00,WNW,296,1.0,4.0,61,0.00,,,0.00,0.000000,,2013-08-04 08:12:00,
2013-08-04 01:22:00,61.0,47.0,-100.00,WNW,296,1.0,4.0,61,0.00,,,0.00,0.000000,,2013-08-04 08:22:00,
2013-08-04 01:31:00,61.0,48.0,-100.00,NW,307,0.0,2.0,62,0.00,,,0.00,0.000000,,2013-08-04 08:31:00,
2013-08-04 01:53:00,61.0,48.0,-100.00,NW,307,0.0,2.0,62,0.00,,,0.00,0.000000,,2013-08-04 08:53:00,
2013-08-04 02:02:00,61.0,48.0,-100.00,NW,307,0.0,2.0,62,0.00,,,0.00,0.000000,,2013-08-04 09:02:00,
2013-08-04 02:12:00,61.0,48.0,-100.00,NW,307,0.0,2.0,62,0.00,,,0.00,0.000000,,2013-08-04 09:12:00,
2013-08-04 02:22:00,61.0,48.0,-100.00,NW,307,0.0,2.0,62,0.00,,,0.00,0.000000,,2013-08-04 09:22:00,
2013-08-04 02:31:00,59.0,47.0,-100.00,SW,221,1.0,3.0,64,0.00,,,0.00,0.000000,,2013-08-04 09:31:00,
2013-08-04 03:02:00,59.0,47.0,-100.00,SW,221,1.0,3.0,64,0.00,,,0.00,0.000000,,2013-08-04 10:02:00,
2013-08-04 03:12:00,59.0,47.0,-100.00,SW,221,1.0,3.0,64,0.00,,,0.00,0.000000,,2013-08-04 10:12:00,
2013-08-04 03:22:00,59.0,47.0,-100.00,SW,221,1.0,3.0,64,0.00,,,0.00,0.000000,,2013-08-04 10:22:00,
2013-08-04 03:31:00,59.0,46.0,-100.00,SSW,212,3.0,4.0,62,0.00,,,0.00,0.000000,,2013-08-04 10:31:00,
2013-08-04 03:53:00,59.0,46.0,-100.00,SSW,212,3.0,4.0,62,0.00,,,0.00,0.000000,,2013-08-04 10:53:00,
2013-08-04 04:02:00,59.0,46.0,-100.00,SSW,212,3.0,4.0,62,0.00,,,0.00,0.000000,,2013-08-04 11:02:00,
2013-08-04 04:12:00,59.0,46.0,-100.00,SSW,212,3.0,4.0,62,0.00,,,0.00,0.000000,,2013-08-04 11:12:00,
2013-08-04 04:31:00,57.0,46.0,-100.00,SSW,203,4.0,6.0,66,-99.99,,,0.00,0.000000,,2013-08-04 11:31:00,
2013-08-04 04:53:00,57.0,46.0,-100.00,SSW,203,4.0,6.0,66,-99.99,,,0.00,0.000000,,2013-08-04 11:53:00,
2013-08-04 05:02:00,57.0,46.0,-100.00,SSW,203,4.0,6.0,66,-99.99,,,0.00,0.000000,,2013-08-04 12:02:00,
2013-08-04 05:12:00,57.0,46.0,-100.00,SSW,203,4.0,6.0,66,-99.99,,,0.00,0.000000,,2013-08-04 12:12:00,
2013-08-04 05:22:00,57.0,46.0,-100.00,SSW,203,4.0,6.0,66,-99.99,,,0.00,0.000000,,2013-08-04 12:22:00,
2013-08-04 05:31:00,57.0,45.0,-100.00,SW,214,3.0,7.0,63,0.00,,,0.00,0.000000,,2013-08-04 12:31:00,
2013-08-04 06:02:00,57.0,45.0,-100.00,SW,214,3.0,7.0,63,0.00,,,0.00,0.000000,,2013-08-04 13:02:00,
2013-08-04 06:12:00,57.0,45.0,-100.00,SW,214,3.0,7.0,63,0.00,,,0.00,0.000000,,2013-08-04 13:12:00,
2013-08-04 06:22:00,57.0,45.0,-100.00,SW,214,3.0,7.0,63,0.00,,,0.00,0.000000,,2013-08-04 13:22:00,
2013-08-04 06:31:00,57.0,44.0,-100.00,SSE,168,1.0,4.0,61,0.00,,,0.00,7.000000,,2013-08-04 13:31:00,
2013-08-04 07:31:00,61.0,47.0,-100.00,NNE,20,1.0,4.0,60,0.00,,,0.00,114.000000,,2013-08-04 14:31:00,
2013-08-04 08:31:00,65.0,46.0,-100.00,NNE,29,2.0,4.0,51,0.00,,,0.00,290.000000,,2013-08-04 15:31:00,
2013-08-04 09:01:00,65.0,46.0,-100.00,NNE,29,2.0,4.0,51,0.00,,,0.00,290.000000,,2013-08-04 16:01:00,
2013-08-04 09:22:00,65.0,46.0,-100.00,NNE,29,2.0,4.0,51,0.00,,,0.00,290.000000,,2013-08-04 16:22:00,
2013-08-04 09:31:00,69.0,50.0,-100.00,NNE,25,3.0,5.0,50,0.00,,,0.00,456.000000,,2013-08-04 16:31:00,
2013-08-04 09:53:00,69.0,50.0,-100.00,NNE,25,3.0,5.0,50,0.00,,,0.00,456.000000,,2013-08-04 16:53:00,
2013-08-04 10:02:00,69.0,50.0,-100.00,NNE,25,3.0,5.0,50,0.00,,,0.00,456.000000,,2013-08-04 17:02:00,
2013-08-04 10:12:00,69.0,50.0,-100.00,NNE,25,3.0,5.0,50,0.00,,,0.00,456.000000,,2013-08-04 17:12:00,
2013-08-04 10:22:00,69.0,50.0,-100.00,NNE,25,3.0,5.0,50,0.00,,,0.00,456.000000,,2013-08-04 17:22:00,
2013-08-04 10:31:00,73.0,50.0,-100.00,NE,44,3.0,6.0,44,0.00,,,0.00,625.000000,,2013-08-04 17:31:00,
2013-08-04 10:53:00,73.0,50.0,-100.00,NE,44,3.0,6.0,44,0.00,,,0.00,625.000000,,2013-08-04 17:53:00,
2013-08-04 11:02:00,73.0,50.0,-100.00,NE,44,3.0,6.0,44,0.00,,,0.00,625.000000,,2013-08-04 18:02:00,
2013-08-04 11:12:00,73.0,50.0,-100.00,NE,44,3.0,6.0,44,0.00,,,0.00,625.000000,,2013-08-04 18:12:00,
2013-08-04 11:22:00,73.0,50.0,-100.00,NE,44,3.0,6.0,44,0.00,,,0.00,625.000000,,2013-08-04 18:22:00,
2013-08-04 11:31:00,78.0,50.0,-100.00,East,81,3.0,6.0,37,0.00,,,0.00,765.000000,,2013-08-04 18:31:00,
2013-08-04 11:52:00,78.0,50.0,-100.00,East,81,3.0,6.0,37,0.00,,,0.00,765.000000,,2013-08-04 18:52:00,
2013-08-04 12:02:00,78.0,50.0,-100.00,East,81,3.0,6.0,37,0.00,,,0.00,765.000000,,2013-08-04 19:02:00,
2013-08-04 12:12:00,78.0,50.0,-100.00,East,81,3.0,6.0,37,0.00,,,0.00,765.000000,,2013-08-04 19:12:00,
2013-08-04 12:22:00,78.0,50.0,-100.00,East,81,3.0,6.0,37,0.00,,,0.00,765.000000,,2013-08-04 19:22:00,
2013-08-04 12:31:00,82.0,48.0,-100.00,East,101,4.0,8.0,31,0.00,,,0.00,851.000000,,2013-08-04 19:31:00,
2013-08-04 12:53:00,82.0,48.0,-100.00,East,101,4.0,8.0,31,0.00,,,0.00,851.000000,,2013-08-04 19:53:00,
2013-08-04 13:02:00,82.0,48.0,-100.00,East,101,4.0,8.0,31,0.00,,,0.00,851.000000,,2013-08-04 20:02:00,
2013-08-04 13:12:00,82.0,48.0,-100.00,East,101,4.0,8.0,31,0.00,,,0.00,851.000000,,2013-08-04 20:12:00,
2013-08-04 13:22:00,82.0,48.0,-100.00,East,101,4.0,8.0,31,0.00,,,0.00,851.000000,,2013-08-04 20:22:00,
2013-08-04 13:31:00,84.0,44.0,-100.00,SSE,154,5.0,9.0,25,0.00,,,0.00,882.000000,,2013-08-04 20:31:00,
2013-08-04 13:53:00,84.0,44.0,-100.00,SSE,154,5.0,9.0,25,0.00,,,0.00,882.000000,,2013-08-04 20:53:00,
2013-08-04 14:02:00,84.0,44.0,-100.00,SSE,154,5.0,9.0,25,0.00,,,0.00,882.000000,,2013-08-04 21:02:00,
2013-08-04 14:12:00,84.0,44.0,-100.00,SSE,154,5.0,9.0,25,0.00,,,0.00,882.000000,,2013-08-04 21:12:00,
2013-08-04 14:22:00,84.0,44.0,-100.00,SSE,154,5.0,9.0,25,0.00,,,0.00,882.000000,,2013-08-04 21:22:00,
2013-08-04 14:31:00,87.0,41.0,-100.00,South,170,5.0,11.0,20,0.00,,,0.00,850.000000,,2013-08-04 21:31:00,
2013-08-04 14:53:00,87.0,41.0,-100.00,South,170,5.0,11.0,20,0.00,,,0.00,850.000000,,2013-08-04 21:53:00,
2013-08-04 15:01:00,87.0,41.0,-100.00,South,170,5.0,11.0,20,0.00,,,0.00,850.000000,,2013-08-04 22:01:00,
2013-08-04 15:12:00,87.0,41.0,-100.00,South,170,5.0,11.0,20,0.00,,,0.00,850.000000,,2013-08-04 22:12:00,
2013-08-04 15:22:00,87.0,41.0,-100.00,South,170,5.0,11.0,20,0.00,,,0.00,850.000000,,2013-08-04 22:22:00,
2013-08-04 15:31:00,89.0,40.0,-100.00,NNW,338,3.0,10.0,18,0.00,,,0.00,807.000000,,2013-08-04 22:31:00,
2013-08-04 15:53:00,89.0,40.0,-100.00,NNW,338,3.0,10.0,18,0.00,,,0.00,807.000000,,2013-08-04 22:53:00,
2013-08-04 16:02:00,89.0,40.0,-100.00,NNW,338,3.0,10.0,18,0.00,,,0.00,807.000000,,2013-08-04 23:02:00,
2013-08-04 16:11:00,89.0,40.0,-100.00,NNW,338,3.0,10.0,18,0.00,,,0.00,807.000000,,2013-08-04 23:11:00,
2013-08-04 16:22:00,89.0,40.0,-100.00,NNW,338,3.0,10.0,18,0.00,,,0.00,807.000000,,2013-08-04 23:22:00,
2013-08-04 16:31:00,88.0,41.0,-100.00,SW,220,5.0,10.0,19,0.00,,,0.00,669.000000,,2013-08-04 23:31:00,
2013-08-04 16:53:00,88.0,41.0,-100.00,SW,220,5.0,10.0,19,0.00,,,0.00,669.000000,,2013-08-04 23:53:00,
2013-08-04 17:02:00,88.0,41.0,-100.00,SW,220,5.0,10.0,19,0.00,,,0.00,669.000000,,2013-08-05 00:02:00,
2013-08-04 17:12:00,88.0,41.0,-100.00,SW,220,5.0,10.0,19,0.00,,,0.00,669.000000,,2013-08-05 00:12:00,
2013-08-04 17:22:00,88.0,41.0,-100.00,SW,220,5.0,10.0,19,0.00,,,0.00,669.000000,,2013-08-05 00:22:00,
2013-08-04 17:31:00,87.0,38.0,-100.00,West,272,6.0,14.0,18,0.00,,,0.00,532.000000,,2013-08-05 00:31:00,
2013-08-04 17:52:00,87.0,38.0,-100.00,West,272,6.0,14.0,18,0.00,,,0.00,532.000000,,2013-08-05 00:52:00,
2013-08-04 18:02:00,87.0,38.0,-100.00,West,272,6.0,14.0,18,0.00,,,0.00,532.000000,,2013-08-05 01:02:00,
2013-08-04 18:12:00,87.0,38.0,-100.00,West,272,6.0,14.0,18,0.00,,,0.00,532.000000,,2013-08-05 01:12:00,
2013-08-04 18:22:00,87.0,38.0,-100.00,West,272,6.0,14.0,18,0.00,,,0.00,532.000000,,2013-08-05 01:22:00,
2013-08-04 18:31:00,85.0,42.0,-100.00,WSW,252,3.0,14.0,22,0.00,,,0.00,343.000000,,2013-08-05 01:31:00,
2013-08-04 18:52:00,85.0,42.0,-100.00,WSW,252,3.0,14.0,22,0.00,,,0.00,343.000000,,2013-08-05 01:52:00,
2013-08-04 19:02:00,85.0,42.0,-100.00,WSW,252,3.0,14.0,22,0.00,,,0.00,343.000000,,2013-08-05 02:02:00,
2013-08-04 19:12:00,85.0,42.0,-100.00,WSW,252,3.0,14.0,22,0.00,,,0.00,343.000000,,2013-08-05 02:12:00,
2013-08-04 19:22:00,85.0,42.0,-100.00,WSW,252,3.0,14.0,22,0.00,,,0.00,343.000000,,2013-08-05 02:22:00,
2013-08-04 19:31:00,80.0,40.0,-100.00,West,268,4.0,12.0,24,0.00,,,-99.99,139.000000,,2013-08-05 02:31:00,
2013-08-04 19:53:00,80.0,40.0,-100.00,West,268,4.0,12.0,24,0.00,,,-99.99,139.000000,,2013-08-05 02:53:00,
2013-08-04 20:02:00,80.0,40.0,-100.00,West,268,4.0,12.0,24,0.00,,,-99.99,139.000000,,2013-08-05 03:02:00,
2013-08-04 20:12:00,80.0,40.0,-100.00,West,268,4.0,12.0,24,0.00,,,-99.99,139.000000,,2013-08-05 03:12:00,
2013-08-04 20:22:00,80.0,40.0,-100.00,West,268,4.0,12.0,24,0.00,,,-99.99,139.000000,,2013-08-05 03:22:00,
2013-08-04 22:31:00,68.0,43.0,-100.00,NNW,342,2.0,7.0,40,0.00,,,0.00,0.000000,,2013-08-05 05:31:00,
2013-08-04 23:22:00,68.0,43.0,-100.00,NNW,342,2.0,7.0,40,0.00,,,0.00,0.000000,,2013-08-05 06:22:00,
2013-08-04 23:31:00,66.0,46.0,-100.00,SW,216,2.0,3.0,48,0.00,,,0.00,0.000000,,2013-08-05 06:31:00,